Terminal Aerodrome Forecast
Issued by NWS Twin Cities, MN

Home | Current Version | Previous Version | Graphics & Text | Print | Product List | Glossary On
Versions: 1 2 3 4 5 6 7 8 9 10 11 12 13 14 15 16 17
000
FTUS43 KMPX 242300
TAFEAU
TAF
KEAU 242322Z 2500/2524 15012G20KT P6SM SCT025 SCT100
     FM250300 17008KT P6SM VCTS SCT020 BKN040CB
      TEMPO 2503/2507 2SM -TSRA BR SCT007 OVC020CB
     FM250800 19004KT 4SM BR BKN008
     FM251400 22007KT P6SM SCT025
     FM251800 25009KT P6SM SCT040 SCT120=

USA.gov is the U.S. government's official web portal to all federal, state and local government web resources and services.